createdAt,value
2022-11-20T00:03:49.606Z,36.83
2022-11-20T00:07:51.383Z,42.10
2022-11-20T00:11:52.457Z,38.33
2022-11-20T00:16:01.657Z,40.57
2022-11-20T00:20:03.327Z,33.37
2022-11-20T00:24:05.063Z,35.87
2022-11-20T00:28:06.235Z,35.60
2022-11-20T00:32:07.310Z,36.47
2022-11-20T00:36:11.533Z,38.77
2022-11-20T00:40:13.208Z,38.37
2022-11-20T00:44:14.390Z,45.30
2022-11-20T00:48:15.444Z,35.97
2022-11-20T00:52:16.612Z,33.57
2022-11-20T00:56:19.418Z,34.17
2022-11-20T01:00:20.481Z,42.80
2022-11-20T01:04:21.719Z,34.10
2022-11-20T01:08:22.772Z,35.20
2022-11-20T01:12:23.871Z,32.10
2022-11-20T01:16:28.243Z,33.00
2022-11-20T01:20:29.415Z,31.00
2022-11-20T01:24:30.529Z,40.00
2022-11-20T01:28:32.390Z,32.33
2022-11-20T01:32:33.567Z,33.50
2022-11-20T01:36:37.233Z,31.03
2022-11-20T01:40:38.315Z,33.20
2022-11-20T01:44:55.018Z,34.13
2022-11-20T01:49:21.370Z,41.73
2022-11-20T01:53:26.591Z,37.97
2022-11-20T01:57:31.463Z,39.90
2022-11-20T02:01:32.872Z,40.60
2022-11-20T02:05:56.273Z,37.67
2022-11-20T02:09:58.911Z,32.57
2022-11-20T02:14:00.648Z,33.00
2022-11-20T02:18:02.228Z,32.67
2022-11-20T02:22:10.146Z,35.50
2022-11-20T02:26:14.762Z,36.80
2022-11-20T02:30:16.493Z,34.17
2022-11-20T02:34:17.665Z,33.97
2022-11-20T02:38:18.864Z,37.10
2022-11-20T02:42:20.115Z,36.20
2022-11-20T02:46:21.293Z,32.10
2022-11-20T02:50:22.481Z,32.37
2022-11-20T02:54:24.551Z,35.07
2022-11-20T02:58:25.634Z,34.10
2022-11-20T03:02:31.402Z,28.77
2022-11-20T03:06:32.870Z,29.37
2022-11-20T03:10:33.943Z,31.13
2022-11-20T03:14:35.017Z,33.60
2022-11-20T03:18:36.276Z,31.53
2022-11-20T03:22:37.667Z,28.80
2022-11-20T03:26:39.314Z,36.27
2022-11-20T03:30:41.175Z,25.53
2022-11-20T03:34:42.394Z,29.00
2022-11-20T03:38:44.118Z,28.83
2022-11-20T03:42:45.217Z,28.47
2022-11-20T03:46:46.302Z,27.23
2022-11-20T03:50:48.112Z,37.40
2022-11-20T03:54:49.256Z,25.83
2022-11-20T03:58:50.916Z,25.57
2022-11-20T04:02:51.971Z,30.80
2022-11-20T04:06:53.071Z,26.90
2022-11-20T04:10:54.196Z,28.40
2022-11-20T04:14:55.371Z,29.70
2022-11-20T04:19:02.401Z,28.37
2022-11-20T04:23:03.498Z,27.03
2022-11-20T04:27:04.550Z,32.33
2022-11-20T04:31:14.879Z,27.60
2022-11-20T04:35:16.045Z,27.50
2022-11-20T04:39:17.384Z,29.80
2022-11-20T04:43:18.538Z,24.70
2022-11-20T04:47:19.832Z,29.20
2022-11-20T04:51:21.088Z,25.40
2022-11-20T04:55:22.186Z,28.10
2022-11-20T04:59:23.801Z,27.23
2022-11-20T05:03:25.138Z,27.67
2022-11-20T05:07:26.248Z,26.33
2022-11-20T05:11:29.306Z,28.00
2022-11-20T05:15:30.386Z,26.40
2022-11-20T05:19:31.570Z,23.50
2022-11-20T05:23:33.657Z,29.00
2022-11-20T05:27:35.033Z,25.00
2022-11-20T05:31:37.600Z,28.37
2022-11-20T05:35:38.773Z,29.67
2022-11-20T05:39:39.839Z,26.27
2022-11-20T05:43:43.305Z,26.27
2022-11-20T05:51:12.565Z,28.57
2022-11-20T05:55:13.776Z,26.13
2022-11-20T05:59:14.965Z,26.97
2022-11-20T06:03:16.171Z,29.60
2022-11-20T06:07:17.399Z,26.67
2022-11-20T06:11:18.879Z,28.07
2022-11-20T06:15:20.058Z,31.47
2022-11-20T06:19:21.555Z,29.87
2022-11-20T06:23:22.939Z,26.30
2022-11-20T06:27:24.135Z,31.63
2022-11-20T06:31:26.322Z,27.63
2022-11-20T06:35:27.610Z,35.07
2022-11-20T06:39:28.699Z,36.47
2022-11-20T06:43:30.075Z,33.63
2022-11-20T06:47:31.159Z,29.63
2022-11-20T06:51:32.371Z,29.87
2022-11-20T06:55:33.567Z,29.00
2022-11-20T06:59:34.858Z,40.73
2022-11-20T07:03:36.469Z,31.73
2022-11-20T07:07:37.752Z,33.30
2022-11-20T07:11:39.462Z,39.60
2022-11-20T07:15:40.632Z,39.93
2022-11-20T07:19:43.136Z,42.37
2022-11-20T07:23:44.360Z,39.20
2022-11-20T07:27:45.542Z,34.27
2022-11-20T07:31:46.740Z,37.90
2022-11-20T07:35:47.953Z,36.10
2022-11-20T07:39:49.145Z,34.20
2022-11-20T07:43:50.333Z,36.27
2022-11-20T07:47:51.829Z,37.30
2022-11-20T07:51:59.296Z,34.00
2022-11-20T07:56:02.976Z,36.90
2022-11-20T08:00:08.730Z,31.73
2022-11-20T08:04:10.006Z,30.67
2022-11-20T08:08:11.296Z,34.30
2022-11-20T08:12:39.845Z,31.50
2022-11-20T08:16:46.262Z,31.87
2022-11-20T08:20:47.448Z,34.60
2022-11-20T08:24:48.753Z,30.83
2022-11-20T08:28:55.876Z,36.93
2022-11-20T08:33:03.714Z,32.60
2022-11-20T08:37:04.915Z,27.70
2022-11-20T08:41:08.319Z,22.13
2022-11-20T08:45:09.771Z,22.17
2022-11-20T08:49:12.780Z,20.13
2022-11-20T08:53:13.944Z,18.37
2022-11-20T08:57:15.045Z,21.87
2022-11-20T09:01:16.240Z,19.87
2022-11-20T09:05:17.617Z,17.93
2022-11-20T09:09:19.466Z,19.83
2022-11-20T09:13:22.897Z,15.50
2022-11-20T09:17:24.102Z,27.80
2022-11-20T09:21:25.332Z,19.63
2022-11-20T09:25:26.778Z,16.47
2022-11-20T09:29:27.960Z,19.10
2022-11-20T09:33:29.073Z,18.33
2022-11-20T09:37:30.538Z,18.67
2022-11-20T09:41:41.822Z,17.70
2022-11-20T09:45:59.050Z,17.50
2022-11-20T09:50:25.583Z,17.97
2022-11-20T09:54:33.311Z,17.80
2022-11-20T09:58:44.185Z,22.23
2022-11-20T10:03:00.824Z,21.17
2022-11-20T10:07:31.357Z,25.33
2022-11-20T10:11:35.485Z,24.17
2022-11-20T10:15:58.836Z,20.90
2022-11-20T10:20:22.419Z,22.07
2022-11-20T10:24:44.368Z,20.60
2022-11-20T10:28:57.435Z,23.90
2022-11-20T10:32:58.873Z,20.23
2022-11-20T10:37:03.899Z,21.27
2022-11-20T10:41:24.598Z,19.13
2022-11-20T10:45:29.598Z,22.60
2022-11-20T10:49:33.399Z,18.83
2022-11-20T10:53:44.499Z,23.33
2022-11-20T10:58:04.777Z,20.40
2022-11-20T11:02:20.891Z,21.60
2022-11-20T11:06:34.920Z,23.20
2022-11-20T11:10:49.282Z,24.03
2022-11-20T11:14:56.722Z,24.10
2022-11-20T11:19:05.996Z,22.70
2022-11-20T11:23:11.388Z,23.50
2022-11-20T11:27:17.934Z,26.90
2022-11-20T11:31:24.102Z,20.70
2022-11-20T11:35:28.265Z,19.60
2022-11-20T11:39:31.590Z,18.93
2022-11-20T11:43:56.080Z,18.77
2022-11-20T11:48:00.678Z,20.43
2022-11-20T11:52:08.177Z,21.93
2022-11-20T11:56:11.562Z,28.77
2022-11-20T12:00:16.673Z,25.77
2022-11-20T12:04:30.778Z,22.63
2022-11-20T12:08:50.690Z,26.87
2022-11-20T12:12:55.678Z,23.53
2022-11-20T12:16:57.969Z,19.43
2022-11-20T12:21:02.965Z,21.30
2022-11-20T12:25:20.244Z,23.50
2022-11-20T12:29:31.150Z,20.40
2022-11-20T12:33:53.969Z,21.23
2022-11-20T12:38:25.031Z,20.07
2022-11-20T12:43:03.852Z,20.00
2022-11-20T12:47:25.756Z,20.10
2022-11-20T12:51:47.746Z,21.03
2022-11-20T12:55:58.963Z,17.67
2022-11-20T13:00:11.099Z,22.97
2022-11-20T13:04:19.064Z,21.80
2022-11-20T13:08:26.075Z,17.27
2022-11-20T13:12:43.432Z,19.00
2022-11-20T13:16:53.885Z,18.67
2022-11-20T13:20:55.301Z,20.57
2022-11-20T13:24:56.387Z,19.30
2022-11-20T13:29:12.193Z,16.80
2022-11-20T13:33:33.360Z,42.07
2022-11-20T13:37:36.937Z,21.13
2022-11-20T13:41:40.330Z,20.90
2022-11-20T13:45:41.512Z,19.97
2022-11-20T13:49:45.418Z,20.00
2022-11-20T13:53:55.453Z,18.47
2022-11-20T13:58:12.113Z,19.83
2022-11-20T14:02:18.693Z,18.00
2022-11-20T14:06:23.681Z,20.80
2022-11-20T14:10:31.808Z,17.87
2022-11-20T14:14:33.585Z,20.90
2022-11-20T14:18:34.672Z,22.07
2022-11-20T14:22:35.772Z,17.13
2022-11-20T14:26:40.156Z,16.93
2022-11-20T14:30:47.535Z,17.70
2022-11-20T14:34:50.724Z,18.07
2022-11-20T14:38:53.408Z,17.93
2022-11-20T14:42:55.220Z,18.23
2022-11-20T14:46:58.022Z,15.77
2022-11-20T14:50:59.324Z,15.13
2022-11-20T14:55:00.535Z,15.83
2022-11-20T14:59:01.772Z,15.73
2022-11-20T15:03:02.980Z,16.03
2022-11-20T15:07:04.626Z,17.47
2022-11-20T15:15:12.407Z,22.57
2022-11-20T15:19:21.060Z,17.17
2022-11-20T15:23:22.735Z,22.13
2022-11-20T15:27:24.120Z,20.87
2022-11-20T15:31:30.264Z,19.17
2022-11-20T15:35:31.459Z,24.33
2022-11-20T15:39:32.567Z,18.47
2022-11-20T15:43:34.095Z,13.90
2022-11-20T15:47:35.883Z,15.90
2022-11-20T15:51:40.383Z,18.37
2022-11-20T15:55:41.534Z,16.83
2022-11-20T15:59:42.719Z,20.37
2022-11-20T16:03:43.960Z,22.77
2022-11-20T16:07:45.141Z,14.30
2022-11-20T16:11:46.338Z,15.50
2022-11-20T16:15:57.355Z,15.70
2022-11-20T16:19:58.545Z,19.23
2022-11-20T16:24:05.473Z,17.80
2022-11-20T16:28:06.670Z,13.83
2022-11-20T16:32:08.959Z,15.20
2022-11-20T16:36:11.897Z,11.90
2022-11-20T16:40:12.954Z,13.20
2022-11-20T16:44:14.674Z,46.77
2022-11-20T16:48:16.670Z,86.37
2022-11-20T16:52:17.934Z,33.63
2022-11-20T16:56:21.081Z,21.67
2022-11-20T17:00:22.382Z,19.33
2022-11-20T17:04:23.654Z,28.03
2022-11-20T17:08:29.545Z,18.77
2022-11-20T17:12:30.675Z,15.27
2022-11-20T17:16:32.126Z,14.70
2022-11-20T17:20:33.293Z,16.67
2022-11-20T17:24:34.747Z,17.90
2022-11-20T17:28:37.434Z,14.70
2022-11-20T17:32:39.094Z,12.43
2022-11-20T17:36:45.265Z,13.03
2022-11-20T17:40:45.526Z,12.50
2022-11-20T17:44:46.700Z,17.37
2022-11-20T17:48:49.125Z,11.97
2022-11-20T17:52:50.308Z,8.13
2022-11-20T17:57:10.124Z,9.27
2022-11-20T18:01:11.388Z,9.83
2022-11-20T18:05:12.796Z,11.03
2022-11-20T18:09:14.470Z,7.70
2022-11-20T18:13:15.533Z,7.70
2022-11-20T18:17:16.706Z,8.00
2022-11-20T18:21:17.764Z,6.80
2022-11-20T18:25:18.845Z,5.77
2022-11-20T18:29:19.910Z,5.27
2022-11-20T18:33:25.450Z,5.27
2022-11-20T18:37:23.961Z,4.57
2022-11-20T18:41:46.169Z,7.23
2022-11-20T18:45:47.254Z,6.07
2022-11-20T18:49:51.722Z,6.30
2022-11-20T18:53:52.810Z,5.30
2022-11-20T18:57:54.612Z,5.20
2022-11-20T19:01:55.735Z,6.00
2022-11-20T19:05:56.975Z,7.23
2022-11-20T19:10:02.344Z,8.37
2022-11-20T19:14:01.282Z,8.10
2022-11-20T19:18:02.559Z,7.07
2022-11-20T19:22:03.941Z,7.80
2022-11-20T19:26:06.315Z,7.63
2022-11-20T19:30:08.609Z,13.00
2022-11-20T19:34:11.418Z,12.40
2022-11-20T19:38:12.632Z,8.50
2022-11-20T19:42:13.829Z,9.00
2022-11-20T19:46:17.470Z,6.50
2022-11-20T19:50:18.729Z,7.43
2022-11-20T19:54:19.857Z,7.30
2022-11-20T19:58:21.190Z,10.20
2022-11-20T20:02:22.381Z,8.07
2022-11-20T20:06:25.191Z,6.90
2022-11-20T20:10:27.021Z,9.13
2022-11-20T20:14:28.125Z,5.03
2022-11-20T20:18:29.386Z,4.93
2022-11-20T20:22:30.508Z,6.83
2022-11-20T20:26:32.039Z,3.80
2022-11-20T20:30:36.355Z,5.03
2022-11-20T20:34:37.463Z,5.07
2022-11-20T20:38:38.936Z,6.63
2022-11-20T20:42:40.026Z,5.60
2022-11-20T20:46:41.233Z,4.60
2022-11-20T20:50:42.834Z,5.43
2022-11-20T20:54:44.037Z,6.47
2022-11-20T20:58:45.347Z,6.07
2022-11-20T21:02:46.558Z,5.67
2022-11-20T21:06:47.730Z,5.07
2022-11-20T21:10:49.192Z,4.67
2022-11-20T21:14:50.466Z,4.10
2022-11-20T21:18:51.631Z,5.07
2022-11-20T21:22:52.870Z,5.37
2022-11-20T21:26:54.863Z,3.57
2022-11-20T21:31:17.841Z,5.40
2022-11-20T21:35:18.948Z,4.10
2022-11-20T21:39:21.231Z,5.00
2022-11-20T21:43:22.464Z,4.83
2022-11-20T21:47:23.755Z,3.80
2022-11-20T21:51:27.485Z,6.37
2022-11-20T21:55:28.791Z,4.10
2022-11-20T21:59:30.384Z,4.50
2022-11-20T22:03:31.706Z,5.00
2022-11-20T22:07:33.101Z,4.27
2022-11-20T22:11:34.573Z,5.13
2022-11-20T22:15:59.305Z,5.60
2022-11-20T22:19:39.092Z,7.07
2022-11-20T22:23:40.860Z,4.00
2022-11-20T22:27:42.109Z,5.90
2022-11-20T22:31:43.746Z,4.10
2022-11-20T22:35:44.884Z,5.00
2022-11-20T22:39:45.959Z,5.07
2022-11-20T22:43:47.371Z,5.07
2022-11-20T22:47:48.544Z,5.10
2022-11-20T22:51:49.633Z,8.80
2022-11-20T22:55:50.814Z,4.20
2022-11-20T22:59:52.182Z,4.80
2022-11-20T23:03:58.995Z,7.90
2022-11-20T23:08:00.069Z,6.23
2022-11-20T23:12:01.214Z,4.73
2022-11-20T23:16:05.403Z,4.87
2022-11-20T23:20:08.188Z,5.20
2022-11-20T23:24:09.789Z,6.73
2022-11-20T23:28:10.961Z,10.20
2022-11-20T23:32:12.035Z,5.43
2022-11-20T23:36:13.560Z,5.60
2022-11-20T23:40:14.790Z,7.40
2022-11-20T23:44:15.931Z,9.10
2022-11-20T23:48:18.240Z,5.67
2022-11-20T23:52:19.525Z,10.70
2022-11-20T23:56:20.694Z,4.90
